Nahariyya, Israel
Current Conditions -  °F | °C
As of 11:25 AM on Friday 21 Nov 2014 (Local Time) from LLHA Reporting Station
Light Rain Light Rain  
Wind Chill: 72°   Ceiling: 3000
Heat Index: 72°   Visibility: 6mi
Dew Point: 61°   Wind: 9mph
Humidity: 69%   Direction: 160°SSE
Pressure: 29.91"   Gusts: NA
Location:  33.03°N, 35.1°E
Report Text: LLHA 210825Z 16008KT 100V200 9999 -RA BKN030 22/16 Q1013 RMKREP AT 0715Z CLD 3000FT
Loading
Personal Weather Stations






























Interactive Weather Map New forecast layout! Learn more

10-Day Weather Forecast

Advertisements
Track Severe Weather on mobile